createdAt,value
2022-10-03T00:02:09.575Z,97693.78
2022-10-03T00:04:49.826Z,97704.25
2022-10-03T00:07:36.618Z,97720.69
2022-10-03T00:10:14.772Z,97724.13
2022-10-03T00:12:49.394Z,97718.13
2022-10-03T00:15:22.039Z,97713.69
2022-10-03T00:17:59.962Z,97716.16
2022-10-03T00:20:53.622Z,97717.94
2022-10-03T00:23:25.797Z,97709.13
2022-10-03T00:25:59.453Z,97711.78
2022-10-03T00:28:47.986Z,97716.13
2022-10-03T00:31:18.707Z,97723.94
2022-10-03T00:33:59.992Z,97737.81
2022-10-03T00:36:35.577Z,97734.25
2022-10-03T00:39:22.559Z,97730.59
2022-10-03T00:42:03.716Z,97731.34
2022-10-03T00:45:05.389Z,97726.25
2022-10-03T00:48:10.957Z,97717.75
2022-10-03T00:50:54.489Z,97730.91
2022-10-03T00:53:33.193Z,97733.31
2022-10-03T00:56:16.607Z,97730.78
2022-10-03T00:58:55.377Z,97743.88
2022-10-03T01:01:30.465Z,97750.81
2022-10-03T01:04:17.082Z,97755.19
2022-10-03T01:06:48.587Z,97750.84
2022-10-03T01:09:34.967Z,97744.88
2022-10-03T01:12:14.601Z,97740.56
2022-10-03T01:15:04.206Z,97745.69
2022-10-03T01:17:40.181Z,97739.66
2022-10-03T01:20:20.375Z,97740.53
2022-10-03T01:23:36.269Z,97750.91
2022-10-03T01:26:16.705Z,97751.78
2022-10-03T01:29:07.715Z,97749.19
2022-10-03T01:31:43.681Z,97744.84
2022-10-03T01:34:16.207Z,97748.31
2022-10-03T01:36:51.766Z,97748.28
2022-10-03T01:39:26.070Z,97750.00
2022-10-03T01:41:59.304Z,97743.94
2022-10-03T01:44:33.333Z,97740.59
2022-10-03T01:47:15.451Z,97739.69
2022-10-03T01:49:48.390Z,97734.53
2022-10-03T01:52:21.098Z,97739.69
2022-10-03T01:54:55.533Z,97740.56
2022-10-03T01:57:32.061Z,97739.69
2022-10-03T02:00:06.946Z,97736.22
2022-10-03T02:02:44.746Z,97722.41
2022-10-03T02:05:18.538Z,97728.41
2022-10-03T02:07:52.068Z,97723.25
2022-10-03T02:10:25.963Z,97724.97
2022-10-03T02:13:02.168Z,97727.53
2022-10-03T02:15:36.431Z,97736.16
2022-10-03T02:18:13.023Z,97743.91
2022-10-03T02:20:46.620Z,97739.44
2022-10-03T02:23:27.552Z,97745.38
2022-10-03T02:26:05.717Z,97752.19
2022-10-03T02:28:57.393Z,97767.81
2022-10-03T02:31:57.081Z,97755.84
2022-10-03T02:34:31.483Z,97761.00
2022-10-03T02:37:36.084Z,97764.44
2022-10-03T02:40:33.006Z,97760.94
2022-10-03T02:43:24.772Z,97766.97
2022-10-03T02:46:23.126Z,97778.13
2022-10-03T02:49:11.641Z,97788.53
2022-10-03T02:52:05.583Z,97793.84
2022-10-03T02:55:00.669Z,97788.53
2022-10-03T02:57:57.350Z,97796.31
2022-10-03T03:00:33.933Z,97792.69
2022-10-03T03:03:32.310Z,97789.28
2022-10-03T03:06:37.237Z,97799.69
2022-10-03T03:09:56.076Z,97801.41
2022-10-03T03:12:41.487Z,97807.50
2022-10-03T03:15:51.396Z,97799.69
2022-10-03T03:18:25.990Z,97810.00
2022-10-03T03:21:10.286Z,97804.03
2022-10-03T03:24:07.131Z,97809.19
2022-10-03T03:26:46.259Z,97820.53
2022-10-03T03:29:22.595Z,97817.13
2022-10-03T03:32:02.182Z,97815.50
2022-10-03T03:34:36.064Z,97810.28
2022-10-03T03:37:09.442Z,97801.75
2022-10-03T03:40:05.269Z,97808.50
2022-10-03T03:42:57.642Z,97805.91
2022-10-03T03:45:41.208Z,97811.91
2022-10-03T03:48:22.687Z,97803.28
2022-10-03T03:51:05.178Z,97803.31
2022-10-03T03:53:50.406Z,97811.91
2022-10-03T03:56:30.617Z,97819.72
2022-10-03T03:59:09.254Z,97812.91
2022-10-03T04:01:52.463Z,97807.66
2022-10-03T04:04:34.287Z,97811.13
2022-10-03T04:07:17.249Z,97805.97
2022-10-03T04:10:04.730Z,97799.88
2022-10-03T04:12:49.094Z,97811.16
2022-10-03T04:15:27.044Z,97812.84
2022-10-03T04:18:31.360Z,97800.78
2022-10-03T04:21:33.079Z,97804.19
2022-10-03T04:24:29.408Z,97808.41
2022-10-03T04:27:06.125Z,97804.22
2022-10-03T04:29:47.649Z,97806.81
2022-10-03T04:32:28.900Z,97805.97
2022-10-03T04:35:18.201Z,97807.69
2022-10-03T04:37:49.502Z,97809.38
2022-10-03T04:40:25.546Z,97808.53
2022-10-03T04:43:04.322Z,97811.09
2022-10-03T04:45:40.354Z,97819.78
2022-10-03T04:48:16.641Z,97815.44
2022-10-03T04:50:58.483Z,97797.38
2022-10-03T04:53:41.081Z,97809.53
2022-10-03T04:56:22.226Z,97806.03
2022-10-03T04:58:57.009Z,97812.00
2022-10-03T05:01:29.927Z,97816.28
2022-10-03T05:04:06.606Z,97825.75
2022-10-03T05:06:46.695Z,97831.06
2022-10-03T05:09:24.049Z,97819.00
2022-10-03T05:12:00.545Z,97841.41
2022-10-03T05:14:40.586Z,97841.41
2022-10-03T05:17:12.797Z,97837.06
2022-10-03T05:19:47.960Z,97842.22
2022-10-03T05:22:28.474Z,97861.22
2022-10-03T05:25:04.676Z,97834.50
2022-10-03T05:27:42.332Z,97850.88
2022-10-03T05:30:17.932Z,97847.41
2022-10-03T05:32:49.626Z,97848.28
2022-10-03T05:35:32.398Z,97850.91
2022-10-03T05:38:31.262Z,97854.34
2022-10-03T05:41:05.128Z,97871.56
2022-10-03T05:43:50.039Z,97881.09
2022-10-03T05:46:24.136Z,97875.03
2022-10-03T05:48:56.978Z,97882.78
2022-10-03T05:52:12.644Z,97894.00
2022-10-03T05:55:00.446Z,97892.31
2022-10-03T05:58:07.860Z,97873.31
2022-10-03T06:00:52.093Z,97878.50
2022-10-03T06:03:56.068Z,97893.16
2022-10-03T06:06:33.485Z,97893.16
2022-10-03T06:09:18.507Z,97890.59
2022-10-03T06:12:10.258Z,97887.13
2022-10-03T06:14:57.966Z,97885.38
2022-10-03T06:18:01.680Z,97886.25
2022-10-03T06:21:07.393Z,97887.13
2022-10-03T06:23:58.903Z,97891.38
2022-10-03T06:26:58.224Z,97883.59
2022-10-03T06:29:49.801Z,97880.16
2022-10-03T06:32:48.644Z,97880.13
2022-10-03T06:35:49.453Z,97878.34
2022-10-03T06:38:36.426Z,97878.28
2022-10-03T06:41:34.393Z,97880.72
2022-10-03T06:44:26.728Z,97873.75
2022-10-03T06:47:15.946Z,97885.72
2022-10-03T06:49:55.821Z,97884.91
2022-10-03T06:52:39.743Z,97887.44
2022-10-03T06:55:28.148Z,97897.09
2022-10-03T06:58:13.831Z,97894.53
2022-10-03T07:00:56.280Z,97898.84
2022-10-03T07:04:01.960Z,97905.69
2022-10-03T07:06:53.473Z,97906.50
2022-10-03T07:09:58.144Z,97904.53
2022-10-03T07:13:06.439Z,97899.97
2022-10-03T07:19:05.310Z,97898.72
2022-10-03T07:21:50.418Z,97884.41
2022-10-03T07:24:45.084Z,97883.53
2022-10-03T07:27:30.632Z,97880.78
2022-10-03T07:30:09.546Z,97871.00
2022-10-03T07:33:07.179Z,97875.91
2022-10-03T07:36:03.839Z,97875.94
2022-10-03T07:38:59.267Z,97876.84
2022-10-03T07:41:47.609Z,97876.13
2022-10-03T07:44:42.980Z,97879.81
2022-10-03T07:47:41.803Z,97878.03
2022-10-03T07:50:54.513Z,97879.50
2022-10-03T07:53:50.971Z,97884.19
2022-10-03T07:56:44.830Z,97884.91
2022-10-03T07:59:43.422Z,97881.63
2022-10-03T08:02:27.010Z,97872.47
2022-10-03T08:05:05.180Z,97866.84
2022-10-03T08:07:48.512Z,97869.41
2022-10-03T08:10:40.963Z,97871.91
2022-10-03T08:13:24.942Z,97875.56
2022-10-03T08:16:15.668Z,97871.94
2022-10-03T08:19:21.623Z,97881.22
2022-10-03T08:22:00.008Z,97876.66
2022-10-03T08:24:38.622Z,97869.59
2022-10-03T08:27:27.810Z,97874.13
2022-10-03T08:30:24.271Z,97876.03
2022-10-03T08:33:17.192Z,97875.16
2022-10-03T08:36:33.059Z,97876.16
2022-10-03T08:39:16.613Z,97878.25
2022-10-03T08:42:35.965Z,97868.41
2022-10-03T08:45:51.023Z,97866.47
2022-10-03T08:48:51.432Z,97866.69
2022-10-03T08:51:47.900Z,97866.03
2022-10-03T08:54:41.241Z,97866.34
2022-10-03T08:57:19.077Z,97861.63
2022-10-03T09:00:16.078Z,97864.31
2022-10-03T09:06:52.796Z,97867.84
2022-10-03T09:10:00.655Z,97880.03
2022-10-03T09:12:42.756Z,97868.38
2022-10-03T09:15:18.411Z,97868.66
2022-10-03T09:18:27.198Z,97873.41
2022-10-03T09:21:28.745Z,97877.19
2022-10-03T09:24:14.385Z,97876.09
2022-10-03T09:27:25.330Z,97873.78
2022-10-03T09:30:10.810Z,97880.22
2022-10-03T09:33:16.758Z,97871.84
2022-10-03T09:35:56.333Z,97874.38
2022-10-03T09:39:13.762Z,97878.16
2022-10-03T09:42:23.803Z,97884.03
2022-10-03T09:45:26.232Z,97898.75
2022-10-03T09:48:32.770Z,97887.03
2022-10-03T09:51:16.673Z,97886.88
2022-10-03T09:54:24.921Z,97886.09
2022-10-03T09:57:10.270Z,97877.47
2022-10-03T10:00:17.176Z,97876.53
2022-10-03T10:03:21.591Z,97867.41
2022-10-03T10:06:07.347Z,97867.59
2022-10-03T10:09:09.693Z,97869.88
2022-10-03T10:12:16.026Z,97869.50
2022-10-03T10:15:04.341Z,97854.22
2022-10-03T10:18:20.416Z,97851.28
2022-10-03T10:21:24.589Z,97858.97
2022-10-03T10:24:03.647Z,97859.28
2022-10-03T10:27:12.196Z,97858.44
2022-10-03T10:30:05.974Z,97848.56
2022-10-03T10:32:56.144Z,97853.72
2022-10-03T10:35:51.943Z,97854.84
2022-10-03T10:38:28.149Z,97846.03
2022-10-03T10:41:38.297Z,97844.16
2022-10-03T10:44:35.045Z,97853.22
2022-10-03T10:47:17.273Z,97846.41
2022-10-03T10:50:20.813Z,97855.72
2022-10-03T10:53:22.085Z,97855.72
2022-10-03T10:56:28.515Z,97848.28
2022-10-03T10:59:43.619Z,97851.94
2022-10-03T11:02:58.674Z,97843.34
2022-10-03T11:06:19.373Z,97846.00
2022-10-03T11:09:18.640Z,97856.38
2022-10-03T11:12:23.564Z,97852.69
2022-10-03T11:15:25.334Z,97848.59
2022-10-03T11:18:28.343Z,97843.44
2022-10-03T11:21:20.569Z,97840.91
2022-10-03T11:24:17.699Z,97846.53
2022-10-03T11:27:22.129Z,97859.50
2022-10-03T11:30:23.133Z,97854.06
2022-10-03T11:33:43.522Z,97852.16
2022-10-03T11:36:45.638Z,97858.72
2022-10-03T11:39:20.900Z,97857.13
2022-10-03T11:41:53.880Z,97855.47
2022-10-03T11:44:25.625Z,97855.53
2022-10-03T11:47:16.378Z,97861.50
2022-10-03T11:50:18.993Z,97850.03
2022-10-03T11:52:59.696Z,97857.69
2022-10-03T11:55:34.113Z,97849.19
2022-10-03T11:58:14.870Z,97856.97
2022-10-03T12:00:45.719Z,97850.41
2022-10-03T12:03:23.794Z,97847.34
2022-10-03T12:06:18.855Z,97849.25
2022-10-03T12:09:02.984Z,97851.13
2022-10-03T12:11:35.115Z,97864.34
2022-10-03T12:14:12.895Z,97854.28
2022-10-03T12:16:57.770Z,97861.03
2022-10-03T12:19:31.257Z,97857.38
2022-10-03T12:22:06.038Z,97843.63
2022-10-03T12:24:36.740Z,97843.66
2022-10-03T12:27:15.734Z,97841.97
2022-10-03T12:29:48.635Z,97857.94
2022-10-03T12:32:23.712Z,97842.41
2022-10-03T12:34:59.880Z,97837.19
2022-10-03T12:37:40.717Z,97839.88
2022-10-03T12:40:17.682Z,97828.97
2022-10-03T12:42:50.410Z,97831.97
2022-10-03T12:45:26.940Z,97833.69
2022-10-03T12:48:11.881Z,97829.38
2022-10-03T12:50:45.283Z,97830.53
2022-10-03T12:53:30.063Z,97824.59
2022-10-03T12:56:08.325Z,97842.59
2022-10-03T12:58:44.572Z,97833.53
2022-10-03T13:01:18.918Z,97832.53
2022-10-03T13:03:53.509Z,97842.91
2022-10-03T13:07:01.256Z,97836.75
2022-10-03T13:09:27.764Z,97836.34
2022-10-03T13:12:17.523Z,97838.84
2022-10-03T13:15:18.999Z,97833.16
2022-10-03T13:17:51.194Z,97837.44
2022-10-03T13:20:25.650Z,97834.22
2022-10-03T13:23:03.256Z,97821.19
2022-10-03T13:25:36.838Z,97822.44
2022-10-03T13:28:14.759Z,97812.09
2022-10-03T13:30:48.803Z,97823.66
2022-10-03T13:33:19.953Z,97829.59
2022-10-03T13:36:02.916Z,97824.63
2022-10-03T13:38:47.138Z,97815.88
2022-10-03T13:41:27.970Z,97816.69
2022-10-03T13:44:05.130Z,97822.59
2022-10-03T13:46:42.344Z,97806.72
2022-10-03T13:49:15.847Z,97819.66
2022-10-03T13:51:50.212Z,97810.19
2022-10-03T13:54:23.948Z,97820.81
2022-10-03T13:56:58.999Z,97827.47
2022-10-03T13:59:51.506Z,97835.22
2022-10-03T14:02:40.145Z,97823.06
2022-10-03T14:05:32.526Z,97829.50
2022-10-03T14:08:10.302Z,97812.19
2022-10-03T14:11:02.751Z,97808.03
2022-10-03T14:13:37.655Z,97817.69
2022-10-03T14:16:13.423Z,97821.66
2022-10-03T14:18:47.740Z,97823.47
2022-10-03T14:21:41.702Z,97812.75
2022-10-03T14:24:24.778Z,97830.22
2022-10-03T14:26:58.526Z,97821.66
2022-10-03T14:29:33.689Z,97816.97
2022-10-03T14:32:28.361Z,97820.66
2022-10-03T14:35:05.338Z,97812.69
2022-10-03T14:37:40.160Z,97825.94
2022-10-03T14:40:17.789Z,97835.13
2022-10-03T14:42:59.069Z,97826.38
2022-10-03T14:45:30.158Z,97840.88
2022-10-03T14:48:08.215Z,97842.53
2022-10-03T14:50:41.042Z,97835.94
2022-10-03T14:53:16.490Z,97835.97
2022-10-03T14:55:48.669Z,97838.44
2022-10-03T14:58:21.776Z,97838.31
2022-10-03T15:00:51.445Z,97847.50
2022-10-03T15:03:38.332Z,97843.50
2022-10-03T15:06:22.313Z,97837.50
2022-10-03T15:08:54.116Z,97840.28
2022-10-03T15:11:27.348Z,97839.66
2022-10-03T15:13:57.461Z,97838.13
2022-10-03T15:16:27.345Z,97841.59
2022-10-03T15:19:02.708Z,97849.53
2022-10-03T15:21:33.506Z,97841.63
2022-10-03T15:24:04.359Z,97842.63
2022-10-03T15:26:36.243Z,97839.78
2022-10-03T15:29:06.488Z,97844.81
2022-10-03T15:31:36.667Z,97832.88
2022-10-03T15:34:08.484Z,97840.19
2022-10-03T15:36:38.884Z,97832.78
2022-10-03T15:39:09.624Z,97834.19
2022-10-03T15:41:49.966Z,97830.59
2022-10-03T15:44:22.161Z,97825.03
2022-10-03T15:46:53.498Z,97830.88
2022-10-03T15:49:27.879Z,97829.41
2022-10-03T15:51:57.268Z,97847.72
2022-10-03T15:54:29.047Z,97831.63
2022-10-03T15:57:00.150Z,97836.28
2022-10-03T15:59:34.634Z,97829.19
2022-10-03T16:02:09.722Z,97834.97
2022-10-03T16:04:40.885Z,97840.47
2022-10-03T16:07:13.206Z,97840.31
2022-10-03T16:09:51.143Z,97852.56
2022-10-03T16:12:39.320Z,97852.06
2022-10-03T16:15:18.308Z,97851.44
2022-10-03T16:17:50.178Z,97862.16
2022-10-03T16:20:23.711Z,97863.38
2022-10-03T16:22:54.720Z,97863.19
2022-10-03T16:25:24.397Z,97874.69
2022-10-03T16:27:57.609Z,97868.72
2022-10-03T16:30:28.577Z,97881.00
2022-10-03T16:33:14.869Z,97880.22
2022-10-03T16:35:46.248Z,97885.22
2022-10-03T16:38:21.582Z,97898.59
2022-10-03T16:40:58.496Z,97897.25
2022-10-03T16:43:27.914Z,97893.25
2022-10-03T16:45:57.138Z,97904.47
2022-10-03T16:48:47.065Z,97904.59
2022-10-03T16:51:21.095Z,97910.88
2022-10-03T16:53:51.616Z,97910.75
2022-10-03T16:56:23.367Z,97909.41
2022-10-03T16:58:53.574Z,97922.06
2022-10-03T17:01:33.078Z,97921.41
2022-10-03T17:04:15.924Z,97921.66
2022-10-03T17:06:50.223Z,97936.44
2022-10-03T17:09:27.749Z,97940.00
2022-10-03T17:11:59.119Z,97942.91
2022-10-03T17:14:29.478Z,97942.16
2022-10-03T17:17:03.045Z,97946.28
2022-10-03T17:19:35.927Z,97944.75
2022-10-03T17:22:13.153Z,97953.47
2022-10-03T17:24:47.119Z,97955.13
2022-10-03T17:27:20.183Z,97949.97
2022-10-03T17:29:51.488Z,97951.84
2022-10-03T17:32:24.610Z,97954.47
2022-10-03T17:34:56.916Z,97963.34
2022-10-03T17:38:37.044Z,97966.94
2022-10-03T17:41:14.307Z,97958.34
2022-10-03T17:43:50.089Z,97959.28
2022-10-03T17:46:24.579Z,97976.66
2022-10-03T17:48:56.676Z,97973.25
2022-10-03T17:51:38.545Z,97981.91
2022-10-03T17:54:15.153Z,97987.97
2022-10-03T17:56:46.108Z,97987.97
2022-10-03T17:59:16.239Z,97987.06
2022-10-03T18:01:46.463Z,97976.63
2022-10-03T18:04:18.852Z,97986.19
2022-10-03T18:06:48.519Z,97985.34
2022-10-03T18:09:28.101Z,97987.06
2022-10-03T18:12:04.145Z,97974.09
2022-10-03T18:14:40.938Z,97981.00
2022-10-03T18:17:17.369Z,97981.97
2022-10-03T18:19:55.652Z,97979.41
2022-10-03T18:22:30.397Z,97982.03
2022-10-03T18:25:23.709Z,97985.47
2022-10-03T18:28:15.154Z,97993.28
2022-10-03T18:30:51.080Z,97999.28
2022-10-03T18:33:23.384Z,98004.47
2022-10-03T18:35:53.344Z,98009.63
2022-10-03T18:38:24.219Z,98015.63
2022-10-03T18:40:56.651Z,98013.91
2022-10-03T18:43:35.304Z,98016.47
2022-10-03T18:46:11.236Z,98025.09
2022-10-03T18:49:09.217Z,98017.38
2022-10-03T18:51:41.272Z,98024.22
2022-10-03T18:54:23.379Z,98025.94
2022-10-03T18:57:05.532Z,98025.03
2022-10-03T18:59:38.351Z,98021.56
2022-10-03T19:02:10.215Z,98028.47
2022-10-03T19:04:41.155Z,98033.63
2022-10-03T19:07:19.807Z,98031.88
2022-10-03T19:10:25.096Z,98023.22
2022-10-03T19:13:01.805Z,98026.63
2022-10-03T19:15:43.007Z,98023.97
2022-10-03T19:18:21.632Z,98029.94
2022-10-03T19:20:53.035Z,98031.69
2022-10-03T19:23:26.893Z,98037.78
2022-10-03T19:25:58.390Z,98033.56
2022-10-03T19:28:30.986Z,98025.81
2022-10-03T19:31:02.254Z,98028.38
2022-10-03T19:33:32.007Z,98024.97
2022-10-03T19:36:04.860Z,98023.19
2022-10-03T19:38:35.237Z,98018.88
2022-10-03T19:41:06.301Z,98017.84
2022-10-03T19:43:40.470Z,98030.91
2022-10-03T19:46:34.240Z,98026.75
2022-10-03T19:49:27.879Z,98036.13
2022-10-03T19:52:25.852Z,98026.69
2022-10-03T19:55:01.483Z,98029.19
2022-10-03T19:57:38.911Z,98030.09
2022-10-03T20:00:22.315Z,98034.34
2022-10-03T20:02:58.874Z,98038.53
2022-10-03T20:05:53.720Z,98038.53
2022-10-03T20:08:27.594Z,98041.03
2022-10-03T20:11:15.318Z,98045.41
2022-10-03T20:13:44.338Z,98048.97
2022-10-03T20:16:17.333Z,98042.06
2022-10-03T20:18:47.866Z,98040.44
2022-10-03T20:21:19.663Z,98044.81
2022-10-03T20:23:48.860Z,98038.84
2022-10-03T20:26:23.664Z,98037.78
2022-10-03T20:29:05.341Z,98045.38
2022-10-03T20:31:35.739Z,98045.97
2022-10-03T20:34:07.202Z,98051.13
2022-10-03T20:36:39.543Z,98044.13
2022-10-03T20:39:13.838Z,98051.06
2022-10-03T20:41:58.224Z,98045.94
2022-10-03T20:44:49.837Z,98037.25
2022-10-03T20:47:27.897Z,98054.19
2022-10-03T20:49:59.601Z,98054.03
2022-10-03T20:52:27.998Z,98049.59
2022-10-03T20:55:00.609Z,98055.66
2022-10-03T20:57:31.876Z,98050.47
2022-10-03T21:00:08.271Z,98056.34
2022-10-03T21:02:43.225Z,98060.53
2022-10-03T21:05:21.724Z,98058.69
2022-10-03T21:07:55.075Z,98068.13
2022-10-03T21:10:27.378Z,98071.00
2022-10-03T21:12:58.876Z,98059.22
2022-10-03T21:15:37.576Z,98056.47
2022-10-03T21:18:07.720Z,98064.00
2022-10-03T21:20:38.811Z,98066.94
2022-10-03T21:23:15.323Z,98073.75
2022-10-03T21:25:44.650Z,98061.09
2022-10-03T21:28:28.400Z,98072.88
2022-10-03T21:31:06.502Z,98064.03
2022-10-03T21:33:40.523Z,98075.81
2022-10-03T21:36:13.794Z,98066.28
2022-10-03T21:38:45.035Z,98073.84
2022-10-03T21:41:24.317Z,98075.69
2022-10-03T21:43:54.896Z,98087.84
2022-10-03T21:46:29.514Z,98073.94
2022-10-03T21:49:23.768Z,98076.09
2022-10-03T21:52:09.206Z,98083.53
2022-10-03T21:54:44.413Z,98067.72
2022-10-03T21:57:15.796Z,98071.94
2022-10-03T22:00:13.565Z,98066.22
2022-10-03T22:02:59.839Z,98069.16
2022-10-03T22:05:39.060Z,98065.34
2022-10-03T22:08:15.317Z,98062.63
2022-10-03T22:10:54.348Z,98062.13
2022-10-03T22:13:25.644Z,98066.19
2022-10-03T22:15:57.149Z,98074.09
2022-10-03T22:18:26.591Z,98078.66
2022-10-03T22:21:01.638Z,98093.53
2022-10-03T22:23:37.962Z,98080.59
2022-10-03T22:26:14.005Z,98079.50
2022-10-03T22:28:54.046Z,98083.97
2022-10-03T22:31:29.210Z,98081.56
2022-10-03T22:34:07.958Z,98082.03
2022-10-03T22:36:38.377Z,98075.19
2022-10-03T22:39:10.181Z,98070.50
2022-10-03T22:41:39.275Z,98065.06
2022-10-03T22:44:09.899Z,98067.63
2022-10-03T22:46:39.611Z,98072.94
2022-10-03T22:49:11.510Z,98073.16
2022-10-03T22:51:41.963Z,98074.50
2022-10-03T22:54:13.562Z,98081.84
2022-10-03T22:56:45.481Z,98073.06
2022-10-03T22:59:20.481Z,98066.66
2022-10-03T23:01:51.630Z,98073.09
2022-10-03T23:04:25.436Z,98089.94
2022-10-03T23:07:05.632Z,98071.09
2022-10-03T23:09:38.226Z,98085.31
2022-10-03T23:12:06.788Z,98079.31
2022-10-03T23:14:38.189Z,98081.47
2022-10-03T23:17:13.823Z,98073.66
2022-10-03T23:19:51.333Z,98074.22
2022-10-03T23:22:24.545Z,98078.38
2022-10-03T23:24:55.979Z,98068.78
2022-10-03T23:27:46.086Z,98080.78
2022-10-03T23:30:51.255Z,98081.88
2022-10-03T23:33:35.391Z,98072.16
2022-10-03T23:36:05.108Z,98080.13
2022-10-03T23:38:54.324Z,98085.31
2022-10-03T23:41:32.059Z,98086.09
2022-10-03T23:44:00.489Z,98086.31
2022-10-03T23:46:30.900Z,98087.75
2022-10-03T23:49:00.711Z,98093.72
2022-10-03T23:51:32.117Z,98093.19
2022-10-03T23:54:04.000Z,98085.84
2022-10-03T23:56:35.067Z,98080.78
2022-10-03T23:59:20.345Z,98099.38
